Autoridad de Aeronautica Civil de Panamá***
**


metar


PERSPECTIVA DE AERODROMOS: 02/DIC DURANTE LA TARDE NO SE PRESENTAN SISTEMAS SIGNIFICATIVOS AEROPUERTO MARCOS GELABERT.

ESTACIONES DESCRIPCION
MPTO (M) 030000Z 04004KT 9999 FEW020 26/22 Q1008 NOSIG=  
MPMG (M) 022300Z 33007KT 9999 FEW020 SCT100 28//23 Q1008 NOSIG=  
MPPA (M) 030000Z 01005KT 9999 FEW015 27/23 Q1008=  
MPDA (M) 030000Z VRB02KT 9999 FEW018 27/23 Q1007=  
MPSM (M) 012100Z 34006KT 9999 FEW025 SCT070 29/23 Q1008=  
MPBO (M) 022100Z 22003KT 9999 SCT018 BKN080 26/23 Q1010=  
MPCH (M) 022300Z 00000KT 9999 FEW020 BKN080 ///// Q1013=  
MPEJ (M) 022300Z 35010KT 9000 SCT015 BKN300 26/// Q1011 RMK HZ ALQDS=  
MPCE (M) 022000Z 01016KT 9000 -RA SCT020 SCT100 27/25 Q1008 RWY WET =  
MPPN (M) 022300Z 04008/KT 9000 SCT018 SCT100 29/// Q//// RMK HZ ALQDS=  
MPSA (M)022200Z 08006KT 9999 SCT015 SCT1007 28/24 1007 RMK PCPN SW  


 

 

  CLIMATICA

MPTO

1 DE DICIEMBRE 2021

 

PCPN (mm)

T° MAX

T° MIN

VIENTO MAX (KT)

HORA

VIENTO PREDOM (KT)

13.5

27.3

23.7

27005KT

0700Z

W03KT

CLIMÁTICAS

MPMG

2 DICIEMBRE  2021

PCPN (mm)

T° MAX

T° MIN

VIENTO MAX (KT)

HORA

VIENTO PREDOM (KT)

0.0

31.2

22.3

33010KT

2100Z

NW

 



Contador: 67446